Time;durP1;ratioP1;P1;durP2;ratioP2;P2;SDS_P1;SDS_P2;PMS_P1;PMS_P2;Temp;Humidity;BMP_temperature;BMP_pressure;BME280_temperature;BME280_humidity;BME280_pressure;Samples;Min_cycle;Max_cycle;Signal;HPM_P1;HPM_P2
2022/03/19 00:00:35;;;;;;;8.38;2.60;;;6.60;99.90;;;;;;5056460;28;20068;-74
2022/03/19 00:03:00;;;;;;;14.20;2.58;;;6.40;99.90;;;;;;5073215;28;20161;-74
2022/03/19 00:05:26;;;;;;;14.70;3.08;;;6.40;99.90;;;;;;5032441;28;20033;-74
2022/03/19 00:07:52;;;;;;;15.02;3.10;;;6.40;99.90;;;;;;5054824;28;20094;-74
2022/03/19 00:10:19;;;;;;;8.38;2.63;;;6.30;99.90;;;;;;5075847;28;20041;-74
2022/03/19 00:12:46;;;;;;;15.73;3.90;;;6.50;99.90;;;;;;5051984;28;20036;-75
2022/03/19 00:15:12;;;;;;;8.68;2.72;;;6.40;99.90;;;;;;5050444;28;20055;-74
2022/03/19 00:17:38;;;;;;;14.00;2.72;;;7.00;99.90;;;;;;5038509;28;20096;-75
2022/03/19 00:20:05;;;;;;;9.68;2.05;;;6.60;99.90;;;;;;5067567;28;20048;-74
2022/03/19 00:22:31;;;;;;;11.20;2.55;;;6.40;99.90;;;;;;5056927;28;20044;-74
2022/03/19 00:24:58;;;;;;;9.88;2.75;;;6.50;99.90;;;;;;5031633;28;20045;-74
2022/03/19 00:27:25;;;;;;;8.38;2.60;;;6.30;99.90;;;;;;5043226;28;20321;-74
2022/03/19 00:29:51;;;;;;;11.52;2.22;;;5.80;99.90;;;;;;5044101;28;20056;-74
2022/03/19 00:32:17;;;;;;;6.90;1.90;;;5.90;99.90;;;;;;5068465;28;20094;-74
2022/03/19 00:34:43;;;;;;;8.70;2.25;;;5.90;99.90;;;;;;5064243;28;20047;-75
2022/03/19 00:37:09;;;;;;;11.18;2.83;;;5.60;99.90;;;;;;5069378;28;20266;-74
2022/03/19 00:39:35;;;;;;;8.52;1.92;;;6.00;99.90;;;;;;5043606;28;20067;-74
2022/03/19 00:42:00;;;;;;;8.02;2.42;;;5.90;99.90;;;;;;5064818;28;20076;-74
2022/03/19 00:44:26;;;;;;;15.23;3.33;;;6.00;99.90;;;;;;5026159;28;20239;-74
2022/03/19 00:46:52;;;;;;;9.07;2.40;;;6.90;99.90;;;;;;5061167;28;20135;-75
2022/03/19 00:49:18;;;;;;;13.65;2.97;;;6.30;99.90;;;;;;5068369;28;20036;-75
2022/03/19 00:51:43;;;;;;;11.43;2.78;;;6.10;99.90;;;;;;5064928;28;20097;-75
2022/03/19 00:54:10;;;;;;;11.02;2.70;;;6.20;99.90;;;;;;5062577;28;20037;-74
2022/03/19 00:56:36;;;;;;;9.63;2.92;;;6.60;99.90;;;;;;5045364;28;20033;-74
2022/03/19 00:59:03;;;;;;;7.50;2.10;;;6.50;99.90;;;;;;5064251;28;20235;-73
2022/03/19 01:01:29;;;;;;;9.25;2.25;;;6.60;99.90;;;;;;5062538;28;20052;-73
2022/03/19 01:03:55;;;;;;;10.50;2.28;;;6.30;99.90;;;;;;5041358;28;20287;-74
2022/03/19 01:06:20;;;;;;;12.77;2.30;;;6.50;99.90;;;;;;5060451;28;20044;-74
2022/03/19 01:08:46;;;;;;;11.07;2.40;;;6.60;99.90;;;;;;5060844;28;20267;-74
2022/03/19 01:11:12;;;;;;;20.83;3.22;;;6.60;99.90;;;;;;5065311;28;20055;-74
2022/03/19 01:13:38;;;;;;;12.13;2.78;;;6.60;99.90;;;;;;5049502;28;20297;-74
2022/03/19 01:16:04;;;;;;;6.93;2.72;;;6.80;99.90;;;;;;5047535;28;20040;-74
2022/03/19 01:18:30;;;;;;;11.45;2.80;;;6.70;99.90;;;;;;5033339;28;20036;-74
2022/03/19 01:20:56;;;;;;;17.30;3.03;;;6.70;99.90;;;;;;5020991;28;20048;-74
2022/03/19 01:23:22;;;;;;;7.20;2.28;;;6.60;99.90;;;;;;5059791;28;20036;-74
2022/03/19 01:25:48;;;;;;;11.05;3.10;;;6.60;99.90;;;;;;5077185;28;20226;-74
2022/03/19 01:28:13;;;;;;;10.90;2.83;;;6.90;99.90;;;;;;5056484;28;20186;-74
2022/03/19 01:30:39;;;;;;;12.90;3.00;;;6.90;99.90;;;;;;5046846;28;20025;-73
2022/03/19 01:33:05;;;;;;;9.48;2.50;;;6.90;99.90;;;;;;5077600;28;20063;-72
2022/03/19 01:35:31;;;;;;;9.00;2.20;;;6.80;99.90;;;;;;5070783;28;20119;-72
2022/03/19 01:37:57;;;;;;;9.27;3.20;;;7.00;99.90;;;;;;5063467;28;20251;-75
2022/03/19 01:40:22;;;;;;;13.32;3.75;;;6.90;99.90;;;;;;5069877;28;20141;-74
2022/03/19 01:42:50;;;;;;;11.20;2.60;;;6.90;99.90;;;;;;5062995;28;20071;-74
2022/03/19 01:45:20;;;;;;;11.85;2.63;;;7.00;99.90;;;;;;5033193;28;20087;-75
2022/03/19 01:47:48;;;;;;;8.85;2.90;;;7.10;99.90;;;;;;5065385;28;20254;-74
2022/03/19 01:50:14;;;;;;;8.40;2.70;;;7.10;99.90;;;;;;5067359;28;20067;-74
2022/03/19 01:52:41;;;;;;;12.77;3.25;;;7.40;99.90;;;;;;5067844;28;20112;-75
2022/03/19 01:55:07;;;;;;;12.57;2.70;;;7.30;99.90;;;;;;5035431;28;20080;-75
2022/03/19 01:57:37;;;;;;;11.93;3.40;;;7.20;99.90;;;;;;5045902;28;20048;-74
2022/03/19 02:00:05;;;;;;;8.10;2.72;;;7.30;99.90;;;;;;5058484;28;20410;-75
2022/03/19 02:02:31;;;;;;;11.93;3.10;;;7.20;99.90;;;;;;5062446;28;20052;-74
2022/03/19 02:04:59;;;;;;;11.80;3.00;;;7.30;99.90;;;;;;5040523;28;20036;-74
2022/03/19 02:07:25;;;;;;;10.00;2.40;;;7.30;99.90;;;;;;5049417;28;20069;-74
2022/03/19 02:09:50;;;;;;;8.65;2.88;;;7.40;99.90;;;;;;5062083;28;20044;-74
2022/03/19 02:12:16;;;;;;;6.00;2.35;;;7.30;99.90;;;;;;5040308;28;20245;-74
2022/03/19 02:14:44;;;;;;;10.20;3.17;;;7.50;99.90;;;;;;5061643;28;20137;-74
2022/03/19 02:17:10;;;;;;;9.23;3.08;;;8.20;99.90;;;;;;5038482;28;20067;-74
2022/03/19 02:19:50;;;;;;;9.45;2.92;;;7.50;99.90;;;;;;5038704;28;20103;-73
2022/03/19 02:22:21;;;;;;;13.73;3.50;;;7.40;99.90;;;;;;5060425;28;20204;-73
2022/03/19 02:27:33;;;;;;;10.18;2.85;;;7.50;99.90;;;;;;5059775;28;20158;-74
2022/03/19 02:29:59;;;;;;;14.05;3.72;;;7.40;99.90;;;;;;5042556;28;20045;-74
2022/03/19 02:32:25;;;;;;;13.63;4.38;;;7.40;99.90;;;;;;5061940;28;20063;-73
2022/03/19 02:34:54;;;;;;;10.05;3.22;;;7.50;99.90;;;;;;5019705;28;20467;-73
2022/03/19 02:37:21;;;;;;;11.65;3.58;;;7.50;99.90;;;;;;5067090;28;20211;-73
2022/03/19 02:39:47;;;;;;;16.55;4.63;;;7.60;99.90;;;;;;5040779;28;20051;-73
2022/03/19 02:42:17;;;;;;;14.18;3.95;;;7.70;99.90;;;;;;5045164;28;20041;-74
2022/03/19 02:44:43;;;;;;;12.95;4.75;;;7.80;99.90;;;;;;5067425;28;20086;-74
2022/03/19 02:47:09;;;;;;;16.23;4.57;;;7.60;99.90;;;;;;5071348;28;20056;-74
2022/03/19 02:49:35;;;;;;;11.18;3.60;;;7.80;99.90;;;;;;5043605;28;20091;-74
2022/03/19 02:52:01;;;;;;;12.43;3.63;;;7.60;99.90;;;;;;5043234;28;20047;-74
2022/03/19 02:54:31;;;;;;;14.07;4.30;;;7.70;99.90;;;;;;5058164;28;20086;-73
2022/03/19 02:56:59;;;;;;;12.63;4.07;;;7.70;99.90;;;;;;5068873;28;20072;-73
2022/03/19 02:59:31;;;;;;;17.15;5.13;;;7.80;99.90;;;;;;5045363;28;20037;-74
2022/03/19 03:01:58;;;;;;;17.25;4.13;;;7.70;99.90;;;;;;5052182;28;20040;-75
2022/03/19 03:04:25;;;;;;;13.45;4.70;;;7.70;99.90;;;;;;5066900;28;20381;-75
2022/03/19 03:06:53;;;;;;;11.95;4.30;;;7.90;99.90;;;;;;5031034;28;20068;-75
2022/03/19 03:09:21;;;;;;;11.88;4.18;;;8.00;99.90;;;;;;5078530;28;20151;-75
2022/03/19 03:11:47;;;;;;;11.15;4.00;;;8.00;99.90;;;;;;5046855;28;20196;-75
2022/03/19 03:14:13;;;;;;;12.00;4.38;;;7.80;99.90;;;;;;5050668;28;20075;-75
2022/03/19 03:16:41;;;;;;;12.98;4.22;;;7.90;99.90;;;;;;5037993;28;20060;-74
2022/03/19 03:19:11;;;;;;;13.73;4.15;;;7.80;99.90;;;;;;5068488;28;20270;-74
2022/03/19 03:21:39;;;;;;;14.70;5.00;;;7.80;99.90;;;;;;5057249;28;20101;-74
2022/03/19 03:24:06;;;;;;;12.20;4.57;;;8.20;99.90;;;;;;5047680;28;20043;-74
2022/03/19 03:26:31;;;;;;;15.73;4.75;;;7.80;99.90;;;;;;5064577;28;20254;-74
2022/03/19 03:28:58;;;;;;;11.57;4.93;;;8.00;99.90;;;;;;5041303;28;20033;-74
2022/03/19 03:31:27;;;;;;;11.15;4.63;;;8.10;99.90;;;;;;5044972;28;20041;-75
2022/03/19 03:33:54;;;;;;;10.05;4.50;;;7.80;99.90;;;;;;5056213;28;20041;-74
2022/03/19 03:36:20;;;;;;;18.33;5.55;;;7.90;99.90;;;;;;5070468;28;20044;-74
2022/03/19 03:38:46;;;;;;;11.98;4.65;;;8.10;99.90;;;;;;5045108;28;20049;-74
2022/03/19 03:41:12;;;;;;;15.05;5.80;;;8.00;99.90;;;;;;5061565;28;20139;-74
2022/03/19 03:43:38;;;;;;;11.27;4.78;;;7.80;99.90;;;;;;5073870;28;20039;-75
2022/03/19 03:46:04;;;;;;;11.82;5.30;;;8.10;99.90;;;;;;5062361;28;20040;-74
2022/03/19 03:48:31;;;;;;;11.57;5.47;;;7.90;99.90;;;;;;5070862;28;20311;-75
2022/03/19 03:50:58;;;;;;;11.77;5.10;;;7.90;99.90;;;;;;5068998;28;20029;-75
2022/03/19 03:53:26;;;;;;;15.68;5.85;;;8.10;99.90;;;;;;5064260;28;20045;-74
2022/03/19 03:55:53;;;;;;;13.90;4.88;;;7.90;99.90;;;;;;5059352;28;20152;-75
2022/03/19 03:58:19;;;;;;;16.13;5.78;;;8.10;99.90;;;;;;5053673;28;20089;-74
2022/03/19 04:00:45;;;;;;;17.33;5.38;;;8.00;99.90;;;;;;5068578;28;20105;-74
2022/03/19 04:03:11;;;;;;;15.50;5.97;;;7.70;99.90;;;;;;5054617;28;20060;-75
2022/03/19 04:05:37;;;;;;;12.20;5.55;;;7.90;99.90;;;;;;5041887;28;20036;-74
2022/03/19 04:08:03;;;;;;;13.23;5.55;;;7.80;99.90;;;;;;5043370;28;20041;-74
2022/03/19 04:10:31;;;;;;;12.25;5.50;;;7.90;99.90;;;;;;5050649;28;20036;-74
2022/03/19 04:12:57;;;;;;;19.40;6.05;;;7.80;99.90;;;;;;5068175;28;20041;-74
2022/03/19 04:15:22;;;;;;;12.90;5.65;;;8.00;99.90;;;;;;5044986;28;20051;-74
2022/03/19 04:17:48;;;;;;;16.52;5.90;;;7.80;99.90;;;;;;5024388;28;20052;-74
2022/03/19 04:20:15;;;;;;;16.27;5.97;;;7.90;99.90;;;;;;5038767;28;20087;-74
2022/03/19 04:22:43;;;;;;;15.02;6.15;;;8.00;99.90;;;;;;5034702;28;20064;-75
2022/03/19 04:25:20;;;;;;;19.80;5.88;;;7.80;99.90;;;;;;5049932;28;20032;-74
2022/03/19 04:27:50;;;;;;;13.50;5.88;;;7.80;99.90;;;;;;5048325;28;20115;-74
2022/03/19 04:30:18;;;;;;;12.38;6.57;;;8.00;99.90;;;;;;5048094;28;20044;-74
2022/03/19 04:32:50;;;;;;;13.63;6.63;;;8.60;99.90;;;;;;5047907;28;20041;-74
2022/03/19 04:38:11;;;;;;;15.50;6.32;;;8.10;99.90;;;;;;5057165;28;20051;-74
2022/03/19 04:40:38;;;;;;;19.35;7.05;;;8.00;99.90;;;;;;5048454;28;20060;-74
2022/03/19 04:43:05;;;;;;;10.38;6.82;;;8.20;99.90;;;;;;5047939;28;20295;-75
2022/03/19 04:45:30;;;;;;;13.35;6.32;;;8.00;99.90;;;;;;5064637;28;20032;-74
2022/03/19 04:47:56;;;;;;;19.58;7.93;;;8.30;99.90;;;;;;5047434;28;20342;-75
2022/03/19 04:50:22;;;;;;;14.15;6.80;;;7.90;99.90;;;;;;5064720;28;20058;-74
2022/03/19 04:52:50;;;;;;;14.70;7.07;;;8.60;99.90;;;;;;5064269;28;20277;-74
2022/03/19 04:55:16;;;;;;;13.18;6.72;;;7.90;99.90;;;;;;5048150;28;20070;-74
2022/03/19 04:57:42;;;;;;;17.23;8.20;;;7.80;99.90;;;;;;5048344;28;20401;-75
2022/03/19 05:00:11;;;;;;;14.23;6.93;;;8.10;99.90;;;;;;5030948;28;20041;-73
2022/03/19 05:02:38;;;;;;;13.85;7.45;;;7.90;99.90;;;;;;5064949;28;20047;-74
2022/03/19 05:05:04;;;;;;;19.52;8.27;;;8.20;99.90;;;;;;5064155;28;20048;-74
2022/03/19 05:07:35;;;;;;;19.25;7.97;;;8.00;99.90;;;;;;5064135;28;20046;-74
2022/03/19 05:12:47;;;;;;;15.93;7.70;;;8.00;99.90;;;;;;5064528;28;20275;-74
2022/03/19 05:15:15;;;;;;;13.57;7.00;;;7.90;99.90;;;;;;5080312;28;20053;-74
2022/03/19 05:17:41;;;;;;;16.42;7.88;;;8.20;99.90;;;;;;5071745;28;20087;-74
2022/03/19 05:20:09;;;;;;;15.70;7.65;;;8.10;99.90;;;;;;5074037;28;20055;-74
2022/03/19 05:22:35;;;;;;;17.92;8.63;;;8.40;99.90;;;;;;5080711;28;20080;-74
2022/03/19 05:25:01;;;;;;;22.50;8.52;;;8.40;99.90;;;;;;5047534;28;20330;-74
2022/03/19 05:27:27;;;;;;;18.15;7.88;;;8.00;99.90;;;;;;5060752;28;20051;-73
2022/03/19 05:29:53;;;;;;;17.50;8.05;;;8.10;99.90;;;;;;5049964;28;20044;-74
2022/03/19 05:32:20;;;;;;;16.77;8.63;;;8.30;99.90;;;;;;5053842;28;20063;-73
2022/03/19 05:34:46;;;;;;;20.95;8.23;;;8.00;99.90;;;;;;5068805;28;20044;-74
2022/03/19 05:37:13;;;;;;;17.20;8.02;;;8.10;99.90;;;;;;5046550;28;20354;-74
2022/03/19 05:39:38;;;;;;;18.92;8.85;;;8.00;99.90;;;;;;5028237;28;20105;-75
2022/03/19 05:42:05;;;;;;;18.80;9.60;;;8.30;99.90;;;;;;5065334;28;20135;-75
2022/03/19 05:44:32;;;;;;;21.83;8.85;;;7.80;99.90;;;;;;5047108;28;20119;-74
2022/03/19 05:46:58;;;;;;;23.58;9.82;;;8.10;99.90;;;;;;5080180;28;20036;-74
2022/03/19 05:49:29;;;;;;;19.95;8.65;;;8.40;99.90;;;;;;5063703;28;20040;-75
2022/03/19 05:51:56;;;;;;;15.60;8.80;;;8.10;99.90;;;;;;5046684;28;20071;-75
2022/03/19 05:54:23;;;;;;;25.08;10.15;;;8.20;99.90;;;;;;5066566;28;20321;-75
2022/03/19 05:56:49;;;;;;;21.73;9.10;;;8.30;99.90;;;;;;5063847;28;20064;-75
2022/03/19 05:59:15;;;;;;;20.73;9.90;;;8.40;99.90;;;;;;5063069;28;20056;-75
2022/03/19 06:01:42;;;;;;;19.38;10.05;;;8.10;99.90;;;;;;5045597;28;20052;-75
2022/03/19 06:04:08;;;;;;;18.75;9.70;;;8.10;99.90;;;;;;5062139;28;20211;-75
2022/03/19 06:06:34;;;;;;;20.58;9.98;;;8.10;99.90;;;;;;5043522;28;20044;-75
2022/03/19 06:09:00;;;;;;;20.83;10.90;;;8.10;99.90;;;;;;5062426;28;20064;-75
2022/03/19 06:11:26;;;;;;;20.50;10.13;;;8.30;99.90;;;;;;5077898;28;20126;-75
2022/03/19 06:13:52;;;;;;;17.55;9.45;;;8.20;99.90;;;;;;5043496;28;20061;-74
2022/03/19 06:16:18;;;;;;;20.73;9.98;;;8.30;99.90;;;;;;5075879;28;20199;-75
2022/03/19 06:18:46;;;;;;;23.13;9.43;;;8.40;99.90;;;;;;5074984;28;20048;-74
2022/03/19 06:21:12;;;;;;;17.98;9.18;;;8.70;99.90;;;;;;5065215;28;20142;-74
2022/03/19 06:23:38;;;;;;;21.45;8.13;;;8.70;99.90;;;;;;5048698;28;20226;-74
2022/03/19 06:26:04;;;;;;;15.30;7.65;;;8.30;99.90;;;;;;5075494;28;20036;-74
2022/03/19 06:28:30;;;;;;;14.40;8.15;;;8.60;99.90;;;;;;5052106;28;20028;-75
2022/03/19 06:30:55;;;;;;;17.02;7.93;;;8.80;99.90;;;;;;5046142;28;20074;-75
2022/03/19 06:33:21;;;;;;;15.25;7.65;;;8.90;99.90;;;;;;5056952;28;20033;-75
2022/03/19 06:38:31;;;;;;;14.37;7.27;;;8.90;99.90;;;;;;5063991;28;20111;-74
2022/03/19 06:40:59;;;;;;;14.00;5.93;;;8.90;99.90;;;;;;5031877;28;20283;-74
2022/03/19 06:43:25;;;;;;;13.05;6.13;;;9.20;99.90;;;;;;5064697;28;20057;-74
2022/03/19 06:45:51;;;;;;;14.88;7.35;;;8.90;99.90;;;;;;5071582;28;20033;-74
2022/03/19 06:48:17;;;;;;;12.48;6.18;;;9.00;99.90;;;;;;5058713;28;20186;-74
2022/03/19 06:50:43;;;;;;;15.18;6.32;;;8.80;99.90;;;;;;5062438;28;20238;-74
2022/03/19 06:53:08;;;;;;;13.75;6.20;;;9.00;99.90;;;;;;5053315;28;20032;-74
2022/03/19 06:55:34;;;;;;;15.98;7.07;;;8.50;99.90;;;;;;5069750;28;20056;-74
2022/03/19 06:58:00;;;;;;;14.10;5.95;;;8.30;99.90;;;;;;5043984;28;20032;-74
2022/03/19 07:00:26;;;;;;;11.63;5.57;;;8.10;99.90;;;;;;5061237;28;20257;-75
2022/03/19 07:02:55;;;;;;;10.82;6.03;;;8.10;99.90;;;;;;5073180;28;20032;-74
2022/03/19 07:05:26;;;;;;;14.48;6.32;;;7.80;99.90;;;;;;5064848;28;20212;-74
2022/03/19 07:07:54;;;;;;;14.18;6.57;;;7.80;99.90;;;;;;5067970;28;20036;-74
2022/03/19 07:10:20;;;;;;;13.73;6.30;;;7.70;99.90;;;;;;5058387;28;20032;-74
2022/03/19 07:12:47;;;;;;;14.95;6.00;;;7.70;99.90;;;;;;5053799;28;20055;-74
2022/03/19 07:15:19;;;;;;;15.32;7.57;;;7.60;99.90;;;;;;5058773;28;20048;-75
2022/03/19 07:17:45;;;;;;;16.23;5.93;;;7.50;99.90;;;;;;5057626;28;20044;-74
2022/03/19 07:20:14;;;;;;;14.93;6.07;;;7.40;99.90;;;;;;5063220;28;20048;-75
2022/03/19 07:23:00;;;;;;;14.32;6.13;;;7.40;99.90;;;;;;5065607;28;20281;-76
2022/03/19 07:25:29;;;;;;;13.50;5.97;;;7.70;99.90;;;;;;5063641;28;20047;-75
2022/03/19 07:27:57;;;;;;;13.68;5.15;;;7.50;99.90;;;;;;5063016;28;20045;-73
2022/03/19 07:30:23;;;;;;;13.52;5.70;;;7.50;99.90;;;;;;5062837;28;20211;-73
2022/03/19 07:32:49;;;;;;;11.18;4.90;;;7.40;99.90;;;;;;5060673;28;20032;-75
2022/03/19 07:35:16;;;;;;;11.30;5.07;;;7.50;99.90;;;;;;5077090;28;20041;-74
2022/03/19 07:37:43;;;;;;;11.00;4.55;;;7.40;99.90;;;;;;5062453;28;20223;-73
2022/03/19 07:40:14;;;;;;;12.38;4.50;;;7.50;99.90;;;;;;5079585;28;20052;-73
2022/03/19 07:42:40;;;;;;;10.80;5.15;;;7.10;99.90;;;;;;5047127;28;20036;-74
2022/03/19 07:45:07;;;;;;;17.88;5.25;;;7.10;99.90;;;;;;5047705;28;20029;-74
2022/03/19 07:47:34;;;;;;;13.57;5.05;;;7.10;99.90;;;;;;5055672;28;20040;-74
2022/03/19 07:50:00;;;;;;;11.27;5.35;;;7.20;99.90;;;;;;5056389;28;20075;-73
2022/03/19 07:52:27;;;;;;;10.43;4.95;;;7.20;99.90;;;;;;5066979;28;20067;-73
2022/03/19 07:54:54;;;;;;;11.68;4.85;;;7.20;99.90;;;;;;5074801;28;20048;-74
2022/03/19 07:57:23;;;;;;;17.02;6.40;;;7.20;99.90;;;;;;5014625;28;20041;-74
2022/03/19 07:59:50;;;;;;;11.68;4.15;;;7.30;99.90;;;;;;5058729;28;20056;-74
2022/03/19 08:02:17;;;;;;;11.05;5.03;;;7.50;99.90;;;;;;5079356;28;20045;-74
2022/03/19 08:04:43;;;;;;;10.75;5.22;;;7.40;99.90;;;;;;5052526;28;20063;-74
2022/03/19 08:07:08;;;;;;;14.00;4.68;;;7.70;99.90;;;;;;5070407;28;20044;-74
2022/03/19 08:09:36;;;;;;;11.63;5.30;;;8.00;99.90;;;;;;5036518;28;20033;-74
2022/03/19 08:12:02;;;;;;;16.35;5.70;;;7.80;99.90;;;;;;5042725;28;20049;-74
2022/03/19 08:14:29;;;;;;;12.32;5.00;;;7.90;99.90;;;;;;5054543;28;20080;-74
2022/03/19 08:16:55;;;;;;;12.13;4.78;;;8.00;99.90;;;;;;5023035;28;20044;-75
2022/03/19 08:19:24;;;;;;;12.35;4.15;;;8.00;99.90;;;;;;5063252;28;20108;-74
2022/03/19 08:21:52;;;;;;;14.48;4.75;;;7.80;99.90;;;;;;5062710;28;20233;-74
2022/03/19 08:24:19;;;;;;;12.10;4.85;;;8.00;99.90;;;;;;5066268;28;20064;-74
2022/03/19 08:26:45;;;;;;;13.30;4.45;;;7.90;99.90;;;;;;5039529;28;20108;-74
2022/03/19 08:29:11;;;;;;;10.38;4.20;;;8.00;99.90;;;;;;5064105;28;20037;-72
2022/03/19 08:31:37;;;;;;;12.35;5.15;;;8.10;99.90;;;;;;5049354;28;20036;-73
2022/03/19 08:34:03;;;;;;;10.27;4.57;;;8.10;99.90;;;;;;5074072;28;20402;-73
2022/03/19 08:36:29;;;;;;;9.27;3.85;;;8.10;99.90;;;;;;5017645;28;20051;-73
2022/03/19 08:41:39;;;;;;;9.77;3.63;;;8.50;99.90;;;;;;5075354;28;20044;-74
2022/03/19 08:44:05;;;;;;;13.93;4.60;;;8.50;99.90;;;;;;5078521;28;20378;-74
2022/03/19 08:46:31;;;;;;;14.48;4.72;;;8.80;99.90;;;;;;5060727;28;20319;-73
2022/03/19 08:48:57;;;;;;;6.82;3.53;;;8.60;99.90;;;;;;5041149;28;20043;-72
2022/03/19 08:51:41;;;;;;;11.90;4.65;;;8.80;99.90;;;;;;5058040;28;20033;-73
2022/03/19 08:54:18;;;;;;;9.83;5.50;;;8.90;99.90;;;;;;5059930;28;20389;-73
2022/03/19 08:56:45;;;;;;;14.77;4.57;;;8.80;99.90;;;;;;5068171;28;20285;-74
2022/03/19 08:59:12;;;;;;;14.25;4.57;;;8.90;99.90;;;;;;5061210;28;20063;-73
2022/03/19 09:01:39;;;;;;;12.20;4.28;;;9.00;99.90;;;;;;5040167;28;20045;-72
2022/03/19 09:04:06;;;;;;;13.85;5.38;;;9.30;99.90;;;;;;5051443;28;20147;-73
2022/03/19 09:06:32;;;;;;;12.60;4.78;;;9.50;99.90;;;;;;5045929;28;20037;-72
2022/03/19 09:09:00;;;;;;;11.00;4.50;;;9.50;99.90;;;;;;5043111;28;20133;-74
2022/03/19 09:11:26;;;;;;;6.57;3.53;;;9.40;99.90;;;;;;5049558;28;20108;-72
2022/03/19 09:13:53;;;;;;;8.48;3.75;;;9.40;99.90;;;;;;5059406;28;20160;-73
2022/03/19 09:16:20;;;;;;;11.77;4.07;;;9.40;99.90;;;;;;5057623;28;20281;-73
2022/03/19 09:18:46;;;;;;;14.35;3.85;;;9.40;99.90;;;;;;5058950;28;20071;-73
2022/03/19 09:21:12;;;;;;;10.20;3.55;;;9.70;99.90;;;;;;5048199;28;20433;-73
2022/03/19 09:23:38;;;;;;;10.43;3.35;;;9.80;99.90;;;;;;5058356;28;20063;-74
2022/03/19 09:26:04;;;;;;;11.60;3.72;;;9.60;99.90;;;;;;5064764;28;20253;-74
2022/03/19 09:28:30;;;;;;;11.32;3.88;;;9.80;99.90;;;;;;5067766;28;20113;-74
2022/03/19 09:30:55;;;;;;;15.80;4.78;;;9.70;99.90;;;;;;5039167;28;20118;-74
2022/03/19 09:33:21;;;;;;;9.80;3.55;;;9.90;99.90;;;;;;5056527;28;20036;-74
2022/03/19 09:35:48;;;;;;;15.13;3.20;;;10.10;99.90;;;;;;5054541;28;20280;-74
2022/03/19 09:38:15;;;;;;;8.90;3.03;;;10.10;99.90;;;;;;5045199;28;20036;-72
2022/03/19 09:40:41;;;;;;;10.75;3.97;;;9.90;99.90;;;;;;5062730;28;20061;-72
2022/03/19 09:43:07;;;;;;;10.70;3.95;;;10.30;99.90;;;;;;5036662;28;20243;-73
2022/03/19 09:45:34;;;;;;;10.35;3.30;;;10.50;99.90;;;;;;5059100;28;20045;-74
2022/03/19 09:48:01;;;;;;;10.15;3.92;;;10.80;99.90;;;;;;5038174;28;20045;-73
2022/03/19 09:50:28;;;;;;;10.32;3.30;;;10.90;99.90;;;;;;5041695;28;20059;-74
2022/03/19 09:52:59;;;;;;;8.57;3.25;;;11.10;99.90;;;;;;5067984;28;20105;-74
2022/03/19 09:55:28;;;;;;;8.77;3.13;;;11.20;99.90;;;;;;5054165;28;20051;-74
2022/03/19 09:57:55;;;;;;;8.23;3.10;;;11.30;99.90;;;;;;5073278;28;20313;-75
2022/03/19 10:00:22;;;;;;;8.05;2.80;;;11.20;99.90;;;;;;5073636;28;20200;-75
2022/03/19 10:03:02;;;;;;;8.57;3.35;;;11.30;99.90;;;;;;5071838;28;20195;-76
2022/03/19 10:08:36;;;;;;;10.52;3.28;;;11.40;99.90;;;;;;5059601;28;20082;-75
2022/03/19 10:11:13;;;;;;;13.00;3.53;;;11.30;99.90;;;;;;5040565;28;20098;-75
2022/03/19 10:13:59;;;;;;;11.98;3.78;;;11.60;99.90;;;;;;5071110;28;20262;-75
2022/03/19 10:16:28;;;;;;;10.25;3.35;;;11.40;99.90;;;;;;5065276;28;20091;-75
2022/03/19 10:19:06;;;;;;;12.93;3.35;;;11.80;99.90;;;;;;5059670;28;20102;-75
2022/03/19 10:21:38;;;;;;;10.05;3.25;;;11.40;99.90;;;;;;5059384;28;20059;-75
2022/03/19 10:24:07;;;;;;;7.38;3.20;;;11.20;99.90;;;;;;5070929;28;20071;-75
2022/03/19 10:26:40;;;;;;;7.90;2.58;;;11.30;99.90;;;;;;5060827;28;20135;-75
2022/03/19 10:29:07;;;;;;;10.00;3.05;;;11.60;99.90;;;;;;5060122;28;20097;-75
2022/03/19 10:31:36;;;;;;;6.30;2.63;;;11.60;99.90;;;;;;5041164;28;20083;-75
2022/03/19 10:34:04;;;;;;;8.50;2.10;;;11.70;99.80;;;;;;5049326;28;20134;-75
2022/03/19 10:36:41;;;;;;;5.38;1.98;;;11.60;99.90;;;;;;5021059;28;20112;-74
2022/03/19 10:39:21;;;;;;;8.80;2.28;;;11.50;96.30;;;;;;5041743;28;20044;-74
2022/03/19 10:41:48;;;;;;;5.63;2.42;;;11.80;97.90;;;;;;5049447;28;20051;-75
2022/03/19 10:44:19;;;;;;;4.88;2.20;;;11.70;99.90;;;;;;5043336;28;20049;-75
2022/03/19 10:46:52;;;;;;;7.50;2.08;;;11.70;92.70;;;;;;5055750;28;20212;-75
2022/03/19 10:49:26;;;;;;;6.18;1.92;;;11.90;96.50;;;;;;5070479;28;20360;-76
2022/03/19 10:51:55;;;;;;;5.55;2.30;;;11.90;90.00;;;;;;5047478;28;20384;-75
2022/03/19 10:54:22;;;;;;;9.85;2.60;;;12.10;92.90;;;;;;5045807;28;20135;-75
2022/03/19 10:56:49;;;;;;;8.88;3.25;;;11.40;99.90;;;;;;5038821;28;20551;-73
2022/03/19 10:59:15;;;;;;;5.05;1.90;;;11.70;99.90;;;;;;5071692;28;20334;-75
2022/03/19 11:01:41;;;;;;;7.28;2.22;;;11.90;93.50;;;;;;5061681;28;20305;-77
2022/03/19 11:04:10;;;;;;;3.80;1.55;;;11.60;98.90;;;;;;5025282;28;20048;-75
2022/03/19 11:06:41;;;;;;;7.28;2.28;;;12.10;90.00;;;;;;5072556;28;20048;-72
2022/03/19 11:09:10;;;;;;;8.07;2.28;;;11.80;92.30;;;;;;5071848;28;20291;-72
2022/03/19 11:11:58;;;;;;;7.70;2.47;;;11.80;94.30;;;;;;5065419;28;20048;-76
2022/03/19 11:14:26;;;;;;;5.00;1.92;;;11.60;93.10;;;;;;5045013;28;20118;-73
2022/03/19 11:17:25;;;;;;;6.97;2.15;;;12.10;84.80;;;;;;5042933;28;20040;-72
2022/03/19 11:20:00;;;;;;;4.97;2.05;;;12.10;80.90;;;;;;5067677;28;20068;-73
2022/03/19 11:22:46;;;;;;;5.13;1.88;;;12.10;78.60;;;;;;5048119;28;20093;-74
2022/03/19 11:25:16;;;;;;;4.07;1.83;;;12.10;80.10;;;;;;5058358;28;20117;-73
2022/03/19 11:27:44;;;;;;;4.15;1.45;;;12.00;82.00;;;;;;5065064;28;20338;-72
2022/03/19 11:30:34;;;;;;;3.80;1.35;;;12.10;80.70;;;;;;5073566;28;20285;-73
2022/03/19 11:33:04;;;;;;;4.15;1.42;;;12.00;73.80;;;;;;5062090;28;20284;-74
2022/03/19 11:35:30;;;;;;;2.42;1.13;;;11.90;75.60;;;;;;5065466;28;20246;-74
2022/03/19 11:38:02;;;;;;;4.05;1.40;;;12.20;72.20;;;;;;5024150;28;20052;-72
2022/03/19 11:40:31;;;;;;;3.63;1.50;;;12.10;70.50;;;;;;5069288;28;20250;-73
2022/03/19 11:42:57;;;;;;;3.83;1.60;;;12.40;77.10;;;;;;5065785;28;20063;-73
2022/03/19 11:45:23;;;;;;;4.07;1.70;;;12.30;77.40;;;;;;5053998;28;20075;-73
2022/03/19 11:47:49;;;;;;;4.03;1.42;;;12.20;77.00;;;;;;5073009;28;20044;-74
2022/03/19 11:50:23;;;;;;;3.63;1.63;;;12.30;78.60;;;;;;5057187;28;20040;-73
2022/03/19 11:53:01;;;;;;;2.75;1.20;;;12.30;74.50;;;;;;5048608;28;20041;-73
2022/03/19 11:55:29;;;;;;;3.35;1.30;;;12.10;73.50;;;;;;5065925;28;20041;-73
2022/03/19 11:58:00;;;;;;;3.65;1.63;;;12.00;70.20;;;;;;5070422;28;20090;-72
2022/03/19 12:00:28;;;;;;;3.97;1.30;;;12.20;73.70;;;;;;5059199;28;20058;-73
2022/03/19 12:03:16;;;;;;;2.67;1.10;;;12.20;71.10;;;;;;5027036;28;20048;-72
2022/03/19 12:05:43;;;;;;;3.40;1.08;;;12.10;65.90;;;;;;5060161;28;20326;-73
2022/03/19 12:08:19;;;;;;;3.38;1.27;;;12.00;69.70;;;;;;5069064;28;20651;-74
2022/03/19 12:11:14;;;;;;;3.17;1.20;;;12.30;71.00;;;;;;5058557;28;20056;-73
2022/03/19 12:13:42;;;;;;;3.65;1.02;;;12.40;67.50;;;;;;5063956;28;20392;-73
2022/03/19 12:16:08;;;;;;;3.58;1.40;;;12.20;65.30;;;;;;5064185;28;20045;-73
2022/03/19 12:18:42;;;;;;;5.22;1.85;;;12.50;71.00;;;;;;5045536;28;20045;-74
2022/03/19 12:21:11;;;;;;;4.05;1.50;;;12.40;70.90;;;;;;5055412;28;20037;-74
2022/03/19 12:24:06;;;;;;;5.05;1.75;;;12.20;69.40;;;;;;5057086;28;20185;-75
2022/03/19 12:26:42;;;;;;;2.92;1.40;;;12.20;68.30;;;;;;5039822;28;20381;-75
2022/03/19 12:29:10;;;;;;;3.53;1.67;;;12.40;68.90;;;;;;5045672;28;20041;-74
2022/03/19 12:31:42;;;;;;;2.65;1.35;;;12.20;70.10;;;;;;5073263;28;20068;-74
2022/03/19 12:34:15;;;;;;;5.88;1.75;;;12.30;68.10;;;;;;5055980;28;20040;-74
2022/03/19 12:36:40;;;;;;;4.95;1.63;;;12.10;68.10;;;;;;5039269;28;20059;-75
2022/03/19 12:39:06;;;;;;;2.97;1.50;;;12.40;69.90;;;;;;5071622;28;20052;-72
2022/03/19 12:41:33;;;;;;;4.05;1.40;;;12.50;67.00;;;;;;5056104;28;20048;-72
2022/03/19 12:44:00;;;;;;;3.22;1.50;;;12.40;68.20;;;;;;5062568;28;20407;-75
2022/03/19 12:46:31;;;;;;;3.00;1.80;;;12.30;67.80;;;;;;5042212;28;20346;-74
2022/03/19 12:49:12;;;;;;;4.43;1.92;;;12.40;66.70;;;;;;5066858;28;20063;-74
2022/03/19 12:51:45;;;;;;;4.25;1.55;;;12.30;68.30;;;;;;5077441;28;20289;-76
2022/03/19 12:54:30;;;;;;;3.55;1.70;;;12.20;69.30;;;;;;5070697;28;20348;-76
2022/03/19 12:57:10;;;;;;;3.15;1.80;;;12.20;71.50;;;;;;5059895;28;20491;-76
2022/03/19 12:59:37;;;;;;;4.65;1.65;;;12.10;70.20;;;;;;5057707;28;20254;-75
2022/03/19 13:02:03;;;;;;;5.38;1.75;;;12.20;71.20;;;;;;5060010;28;20059;-75
2022/03/19 13:04:31;;;;;;;4.80;2.33;;;12.00;70.60;;;;;;5060086;28;20071;-72
2022/03/19 13:06:59;;;;;;;4.22;1.70;;;12.40;72.20;;;;;;5059960;28;20044;-73
2022/03/19 13:09:33;;;;;;;5.10;2.20;;;12.30;72.30;;;;;;5052616;28;20411;-74